Share

Anshun, Guizhou

Guiyang (ZUGY) Elev 3734 ft | 26.54 °N, 106.80 °E | Change Station

Current weather conditions updated 47 minutes ago

Mostly Cloudy
Mostly Cloudy
75 °F
Feels Like 75 °F
N
18
Wind Variable Wind from South
Sunrise 6:30 AM
Sunset 7:21 PM
Moon Waning Gibbous

Today is forecast to be nearly the same temperature as yesterday. Thunderstorms developing late tonight.

Pressure 29.86 in
Visibility 6.2 miles
Clouds Mostly Cloudy 2600 ft
Dew Point 64 °F
Humidity 69%
Rainfall 0.00 in
Snow Depth Not available.
UV 2 out of 16
Pollen Not available.
Air Quality Not available.
Flu Activity Not available.
METAR ZUGY 180100Z 19008MPS 160V220 9999 BKN026 24/18 Q1011 NOSIG

More Conditions Fewer Conditions

Pressure 29.86 in
Visibility 6.2 miles
Clouds Mostly Cloudy 2600 ft
Dew Point 64 °F
Humidity 69%
Rainfall 0.00 in
Snow Depth Not available.
UV 2 out of 16
Pollen Not available.
Air Quality Not available.
Flu Activity Not available.
METAR ZUGY 180100Z 19008MPS 160V220 9999 BKN026 24/18 Q1011 NOSIG

More Conditions Fewer Conditions

10-Day Forecast

Almanac

Astronomy

Apr. 18, 2014 Rise Set
Actual Time 6:30 AM CST 7:21 PM CST
Civil Twilight 6:06 AM CST 7:44 PM CST
Nautical Twilight 5:38 AM CST 8:12 PM CST
Astronomical Twilight 5:10 AM CST 8:41 PM CST
Moon 10:21 PM CST 8:35 AM CST
Length of Visible Light 13h 38m
Length of Day
12h 50m
Tomorrow will be 1m 27s longer.
Waning Gibbous, 91% of the Moon is Illuminated
Apr 17
Waning Gibbous
Apr 22
Last Quarter
Apr 29
New
May 6
First Quarter
May 14
Full

Yesterday's Extremes

Country Highs Country Lows

Community

  • Morning Light
    Morning Light
  • New Day
    New Day
  • Lake Michigan Sunrise
    Lake Michigan Sunrise
  • sunset from izmir, narlıdere
    sunset from izmir, narlıdere
  • oregon cherry
    oregon cherry

WunderPhotos

Upload Photos

1,702,209 photos uploaded!

WunderBlogs® & News

Nearby

Snow Depth

Not available.

Coastal Water Temperatures

Place Temperature
No Stations Reporting

Earthquake Activity

City Distance Mag. Time & Date
No recent earthquake activity has been reported nearby.
Minimum magnitude displayed is 2.5.

Nearby Weather Stations

There are no personal weather stations in this area.

What do you think?

We're not finished. Please let us know what you like, what you don't like, and what you are still missing.